createdAt,value
2023-05-03T00:06:50.814Z,26.80
2023-05-03T00:09:50.802Z,32.10
2023-05-03T00:13:04.241Z,26.30
2023-05-03T00:16:30.845Z,26.60
2023-05-03T00:19:31.695Z,27.60
2023-05-03T00:23:03.241Z,25.50
2023-05-03T00:26:20.686Z,27.90
2023-05-03T00:29:03.846Z,21.70
2023-05-03T00:32:07.959Z,21.60
2023-05-03T00:35:06.033Z,22.90
2023-05-03T00:37:58.819Z,18.50
2023-05-03T00:41:13.564Z,21.40
2023-05-03T00:44:18.812Z,18.90
2023-05-03T00:47:07.066Z,19.30
2023-05-03T00:50:42.419Z,16.70
2023-05-03T00:53:57.027Z,16.70
2023-05-03T00:57:51.375Z,15.50
2023-05-03T01:01:36.240Z,16.80
2023-05-03T01:05:10.880Z,12.90
2023-05-03T01:08:51.790Z,13.50
2023-05-03T01:11:55.257Z,14.90
2023-05-03T01:15:48.296Z,12.10
2023-05-03T01:19:46.930Z,14.20
2023-05-03T01:23:38.569Z,13.50
2023-05-03T01:27:04.278Z,9.30
2023-05-03T01:30:10.177Z,15.20
2023-05-03T01:33:58.009Z,12.40
2023-05-03T01:37:21.680Z,17.40
2023-05-03T01:40:28.866Z,11.80
2023-05-03T01:43:41.799Z,10.00
2023-05-03T01:47:30.236Z,8.80
2023-05-03T01:50:36.191Z,14.90
2023-05-03T01:53:45.425Z,12.70
2023-05-03T01:56:53.712Z,11.00
2023-05-03T02:00:11.518Z,9.50
2023-05-03T02:03:02.119Z,15.20
2023-05-03T02:06:33.614Z,13.90
2023-05-03T02:10:01.701Z,13.90
2023-05-03T02:13:15.415Z,10.60
2023-05-03T02:17:12.090Z,8.80
2023-05-03T02:20:39.237Z,15.20
2023-05-03T02:23:34.967Z,8.50
2023-05-03T02:27:24.493Z,15.10
2023-05-03T02:31:08.959Z,9.00
2023-05-03T02:34:26.745Z,10.10
2023-05-03T02:38:18.815Z,7.60
2023-05-03T02:41:58.635Z,9.10
2023-05-03T02:45:34.667Z,12.00
2023-05-03T02:48:50.270Z,8.00
2023-05-03T02:52:28.684Z,8.80
2023-05-03T02:56:02.940Z,16.50
2023-05-03T02:59:28.272Z,9.60
2023-05-03T03:03:36.745Z,9.40
2023-05-03T03:07:46.212Z,8.30
2023-05-03T03:10:55.216Z,10.10
2023-05-03T03:13:44.028Z,10.10
2023-05-03T03:17:32.591Z,8.40
2023-05-03T03:20:47.822Z,10.40
2023-05-03T03:23:38.773Z,10.60
2023-05-03T03:26:25.123Z,8.30
2023-05-03T03:29:42.364Z,9.20
2023-05-03T03:33:35.613Z,10.00
2023-05-03T03:37:16.848Z,7.40
2023-05-03T03:40:49.109Z,13.70
2023-05-03T03:44:39.230Z,6.70
2023-05-03T03:48:01.898Z,9.90
2023-05-03T03:51:23.714Z,7.90
2023-05-03T03:54:43.533Z,10.20
2023-05-03T03:58:06.667Z,7.00
2023-05-03T04:01:56.204Z,8.30
2023-05-03T04:05:29.509Z,11.00
2023-05-03T04:09:28.334Z,9.60
2023-05-03T04:12:54.527Z,7.50
2023-05-03T04:16:29.828Z,7.70
2023-05-03T04:19:44.425Z,9.20
2023-05-03T04:23:05.429Z,13.20
2023-05-03T04:26:59.198Z,7.60
2023-05-03T04:30:23.367Z,12.20
2023-05-03T04:33:57.117Z,8.80
2023-05-03T04:37:41.073Z,7.10
2023-05-03T04:41:36.610Z,7.60
2023-05-03T04:45:10.022Z,11.00
2023-05-03T04:48:08.795Z,8.10
2023-05-03T04:52:10.778Z,10.60
2023-05-03T04:56:02.196Z,5.40
2023-05-03T05:02:58.971Z,6.20
2023-05-03T05:06:58.536Z,7.30
2023-05-03T05:10:50.421Z,6.90
2023-05-03T05:14:54.952Z,7.10
2023-05-03T05:18:48.646Z,6.80
2023-05-03T05:26:42.214Z,7.10
2023-05-03T05:30:26.784Z,5.60
2023-05-03T05:34:17.682Z,4.70
2023-05-03T05:38:27.576Z,5.30
2023-05-03T05:42:28.828Z,7.70
2023-05-03T05:46:38.128Z,8.30
2023-05-03T05:50:47.709Z,7.20
2023-05-03T05:54:39.162Z,10.70
2023-05-03T05:58:48.586Z,4.10
2023-05-03T06:02:58.321Z,7.60
2023-05-03T06:06:54.428Z,14.20
2023-05-03T06:10:57.194Z,5.10
2023-05-03T06:15:06.679Z,8.00
2023-05-03T06:19:16.292Z,3.90
2023-05-03T06:23:11.506Z,4.70
2023-05-03T06:26:59.725Z,5.30
2023-05-03T06:30:31.244Z,4.60
2023-05-03T06:34:28.251Z,4.00
2023-05-03T06:38:37.695Z,3.70
2023-05-03T06:42:47.661Z,6.30
2023-05-03T06:46:57.148Z,2.70
2023-05-03T06:50:44.577Z,3.30
2023-05-03T06:54:29.807Z,3.00
2023-05-03T06:58:14.732Z,4.20
2023-05-03T07:02:08.102Z,4.30
2023-05-03T07:05:40.721Z,4.30
2023-05-03T07:09:26.150Z,4.90
2023-05-03T07:13:41.675Z,5.50
2023-05-03T07:17:51.186Z,3.70
2023-05-03T07:21:42.771Z,4.70
2023-05-03T07:25:45.199Z,5.50
2023-05-03T07:29:27.885Z,4.10
2023-05-03T07:33:38.262Z,3.40
2023-05-03T07:37:40.653Z,4.00
2023-05-03T07:41:49.475Z,4.40
2023-05-03T07:45:24.066Z,3.30
2023-05-03T07:49:18.404Z,3.70
2023-05-03T07:53:17.002Z,3.90
2023-05-03T07:57:26.557Z,3.10
2023-05-03T08:00:54.008Z,4.00
2023-05-03T08:04:16.314Z,6.20
2023-05-03T08:08:25.707Z,3.10
2023-05-03T08:12:08.207Z,3.50
2023-05-03T08:15:18.393Z,4.20
2023-05-03T08:18:11.034Z,2.30
2023-05-03T08:21:28.439Z,2.10
2023-05-03T08:24:29.444Z,3.30
2023-05-03T08:27:50.231Z,1.30
2023-05-03T08:31:15.179Z,2.60
2023-05-03T08:34:42.102Z,1.50
2023-05-03T08:37:41.681Z,5.50
2023-05-03T08:41:18.093Z,1.40
2023-05-03T08:44:49.574Z,0.70
2023-05-03T08:48:05.575Z,1.00
2023-05-03T08:51:10.598Z,2.30
2023-05-03T08:55:20.585Z,3.30
2023-05-03T08:58:34.373Z,2.30
2023-05-03T09:02:37.474Z,1.50
2023-05-03T09:06:39.694Z,1.80
2023-05-03T09:09:51.953Z,1.80
2023-05-03T09:13:24.871Z,1.30
2023-05-03T09:17:09.961Z,1.30
2023-05-03T09:20:37.237Z,1.70
2023-05-03T09:24:05.916Z,2.60
2023-05-03T09:27:28.305Z,2.20
2023-05-03T09:31:02.066Z,1.10
2023-05-03T09:34:44.225Z,1.20
2023-05-03T09:38:09.639Z,2.00
2023-05-03T09:41:46.972Z,1.80
2023-05-03T09:48:16.040Z,1.00
2023-05-03T09:51:43.004Z,2.10
2023-05-03T09:55:13.825Z,1.10
2023-05-03T09:58:31.186Z,1.90
2023-05-03T10:01:57.730Z,3.20
2023-05-03T10:05:16.435Z,0.70
2023-05-03T10:08:38.052Z,1.60
2023-05-03T10:12:38.018Z,1.30
2023-05-03T10:16:00.715Z,1.80
2023-05-03T10:19:50.970Z,1.40
2023-05-03T10:23:46.496Z,1.50
2023-05-03T10:27:34.682Z,3.20
2023-05-03T10:31:07.113Z,2.20
2023-05-03T10:35:00.241Z,2.80
2023-05-03T10:38:40.261Z,1.50
2023-05-03T10:42:50.662Z,1.30
2023-05-03T10:46:08.509Z,3.10
2023-05-03T10:50:03.876Z,1.40
2023-05-03T10:53:33.278Z,3.60
2023-05-03T10:57:28.157Z,1.30
2023-05-03T11:00:44.082Z,0.90
2023-05-03T11:07:19.721Z,1.20
2023-05-03T11:11:12.955Z,1.30
2023-05-03T11:15:12.835Z,3.20
2023-05-03T11:18:29.002Z,2.60
2023-05-03T11:22:37.107Z,3.00
2023-05-03T11:26:27.622Z,2.90
2023-05-03T11:30:02.765Z,5.70
2023-05-03T11:33:11.835Z,4.10
2023-05-03T11:36:34.566Z,6.70
2023-05-03T11:40:17.130Z,8.40
2023-05-03T11:43:09.332Z,7.40
2023-05-03T11:46:12.110Z,6.00
2023-05-03T11:49:40.153Z,7.00
2023-05-03T11:53:13.773Z,7.20
2023-05-03T11:56:22.952Z,7.40
2023-05-03T11:59:51.831Z,5.20
2023-05-03T12:03:40.932Z,8.40
2023-05-03T12:07:27.130Z,4.80
2023-05-03T12:10:52.713Z,11.00
2023-05-03T12:14:13.765Z,11.70
2023-05-03T12:17:49.773Z,8.60
2023-05-03T12:21:41.972Z,8.40
2023-05-03T12:24:49.846Z,10.40
2023-05-03T12:27:19.735Z,9.90
2023-05-03T12:30:03.895Z,11.50
2023-05-03T12:33:17.148Z,9.40
2023-05-03T12:36:32.500Z,4.70
2023-05-03T12:39:46.107Z,11.00
2023-05-03T12:43:01.997Z,6.50
2023-05-03T12:45:41.584Z,8.80
2023-05-03T12:48:38.641Z,7.10
2023-05-03T12:51:55.426Z,6.30
2023-05-03T12:55:09.130Z,8.50
2023-05-03T12:58:36.983Z,9.20
2023-05-03T13:04:43.476Z,10.60
2023-05-03T13:07:35.188Z,11.70
2023-05-03T13:10:24.942Z,8.60
2023-05-03T13:13:07.289Z,14.70
2023-05-03T13:16:28.359Z,7.50
2023-05-03T13:19:13.779Z,6.40
2023-05-03T13:22:16.383Z,9.60
2023-05-03T13:24:46.261Z,9.40
2023-05-03T13:27:18.379Z,9.80
2023-05-03T13:29:49.846Z,9.20
2023-05-03T13:32:29.867Z,11.30
2023-05-03T13:35:12.407Z,8.90
2023-05-03T13:38:13.675Z,8.50
2023-05-03T13:41:06.305Z,10.10
2023-05-03T13:43:58.269Z,8.30
2023-05-03T13:46:43.296Z,7.70
2023-05-03T14:03:06.697Z,8.80
2023-05-03T14:05:51.545Z,8.00
2023-05-03T14:09:02.246Z,10.00
2023-05-03T14:11:57.582Z,6.60
2023-05-03T14:15:29.273Z,8.20
2023-05-03T14:18:47.339Z,10.30
2023-05-03T14:22:10.390Z,6.30
2023-05-03T14:26:01.656Z,9.60
2023-05-03T14:29:25.230Z,8.60
2023-05-03T14:32:50.764Z,10.90
2023-05-03T14:36:21.276Z,9.30
2023-05-03T14:39:32.903Z,9.20
2023-05-03T14:42:42.282Z,9.70
2023-05-03T14:45:50.485Z,8.20
2023-05-03T14:49:24.890Z,10.60
2023-05-03T14:52:43.856Z,10.30
2023-05-03T14:56:35.838Z,9.30
2023-05-03T15:00:18.139Z,13.80
2023-05-03T15:04:03.432Z,10.00
2023-05-03T15:07:15.559Z,7.50
2023-05-03T15:11:23.858Z,9.80
2023-05-03T15:15:15.767Z,8.10
2023-05-03T15:18:23.592Z,9.20
2023-05-03T15:21:07.353Z,10.00
2023-05-03T15:24:25.426Z,11.50
2023-05-03T15:28:01.868Z,13.50
2023-05-03T15:31:38.270Z,10.40
2023-05-03T15:34:58.002Z,9.00
2023-05-03T15:37:59.889Z,14.20
2023-05-03T15:41:36.740Z,12.50
2023-05-03T15:44:58.955Z,9.30
2023-05-03T15:49:01.295Z,11.00
2023-05-03T15:52:21.836Z,10.80
2023-05-03T15:56:11.688Z,8.50
2023-05-03T15:59:20.503Z,12.50
2023-05-03T16:03:19.905Z,12.40
2023-05-03T16:07:02.521Z,11.00
2023-05-03T16:10:24.935Z,10.00
2023-05-03T16:14:14.958Z,12.70
2023-05-03T16:17:46.654Z,13.00
2023-05-03T16:21:30.201Z,16.40
2023-05-03T16:25:23.055Z,14.90
2023-05-03T16:29:01.112Z,12.80
2023-05-03T16:33:10.816Z,9.50
2023-05-03T16:36:49.537Z,14.50
2023-05-03T16:40:49.127Z,14.80
2023-05-03T16:44:58.760Z,12.50
2023-05-03T16:49:08.364Z,13.90
2023-05-03T16:53:20.389Z,13.50
2023-05-03T16:57:03.783Z,10.50
2023-05-03T17:00:28.956Z,14.20
2023-05-03T17:03:47.047Z,14.30
2023-05-03T17:07:25.514Z,13.20
2023-05-03T17:10:57.743Z,13.90
2023-05-03T17:14:29.914Z,13.00
2023-05-03T17:18:30.624Z,10.60
2023-05-03T17:22:14.871Z,14.30
2023-05-03T17:25:56.603Z,14.40
2023-05-03T17:29:24.581Z,19.20
2023-05-03T17:33:11.651Z,14.40
2023-05-03T17:37:02.904Z,16.40
2023-05-03T17:40:41.124Z,16.60
2023-05-03T17:43:44.811Z,14.40
2023-05-03T17:46:27.033Z,13.00
2023-05-03T17:52:28.981Z,13.00
2023-05-03T17:55:36.903Z,11.10
2023-05-03T17:58:09.528Z,12.50
2023-05-03T18:01:07.916Z,13.10
2023-05-03T18:03:44.783Z,9.80
2023-05-03T18:06:27.173Z,12.20
2023-05-03T18:08:55.778Z,11.00
2023-05-03T18:11:41.441Z,12.40
2023-05-03T18:14:59.597Z,11.80
2023-05-03T18:18:05.373Z,15.20
2023-05-03T18:20:42.115Z,10.80
2023-05-03T18:23:36.628Z,11.90
2023-05-03T18:26:33.516Z,14.40
2023-05-03T18:29:34.906Z,18.10
2023-05-03T18:32:08.591Z,15.10
2023-05-03T18:35:31.359Z,13.10
2023-05-03T18:39:00.376Z,15.80
2023-05-03T18:42:16.782Z,15.50
2023-05-03T18:45:46.074Z,12.30
2023-05-03T18:49:01.106Z,21.40
2023-05-03T18:52:05.867Z,14.00
2023-05-03T18:54:43.421Z,14.40
2023-05-03T18:57:38.038Z,13.70
2023-05-03T19:00:22.894Z,21.20
2023-05-03T19:02:54.156Z,18.50
2023-05-03T19:05:50.913Z,30.50
2023-05-03T19:08:43.616Z,30.40
2023-05-03T19:11:50.460Z,29.40
2023-05-03T19:14:26.388Z,25.70
2023-05-03T19:17:40.628Z,17.80
2023-05-03T19:20:29.850Z,16.80
2023-05-03T19:22:58.637Z,21.10
2023-05-03T19:25:27.666Z,27.80
2023-05-03T19:28:14.602Z,28.20
2023-05-03T19:31:37.777Z,31.60
2023-05-03T19:34:15.164Z,34.60
2023-05-03T19:37:00.150Z,33.40
2023-05-03T19:40:11.368Z,38.00
2023-05-03T19:42:50.587Z,35.50
2023-05-03T19:46:06.802Z,36.80
2023-05-03T19:48:52.046Z,28.30
2023-05-03T19:51:57.792Z,30.70
2023-05-03T19:54:57.417Z,32.30
2023-05-03T19:57:38.128Z,34.00
2023-05-03T20:00:22.964Z,29.90
2023-05-03T20:03:29.365Z,26.60
2023-05-03T20:06:18.106Z,30.10
2023-05-03T20:09:05.493Z,32.50
2023-05-03T20:12:39.653Z,42.70
2023-05-03T20:15:29.305Z,24.50
2023-05-03T20:18:41.475Z,14.60
2023-05-03T20:21:44.850Z,22.70
2023-05-03T20:24:52.685Z,30.60
2023-05-03T20:28:38.514Z,39.80
2023-05-03T20:31:27.582Z,49.90
2023-05-03T20:34:17.911Z,43.30
2023-05-03T20:37:47.284Z,30.40
2023-05-03T20:41:26.386Z,36.80
2023-05-03T20:44:42.251Z,51.50
2023-05-03T20:48:08.431Z,62.80
2023-05-03T20:51:19.903Z,75.40
2023-05-03T20:54:46.507Z,71.90
2023-05-03T20:57:54.424Z,66.90
2023-05-03T21:01:08.594Z,62.90
2023-05-03T21:04:26.951Z,31.80
2023-05-03T21:07:41.951Z,21.00
2023-05-03T21:10:49.334Z,50.40
2023-05-03T21:13:56.669Z,48.60
2023-05-03T21:17:18.228Z,29.20
2023-05-03T21:20:24.105Z,20.60
2023-05-03T21:23:32.804Z,25.20
2023-05-03T21:26:50.671Z,16.30
2023-05-03T21:30:45.505Z,20.30
2023-05-03T21:34:52.495Z,17.70
2023-05-03T21:38:27.844Z,22.30
2023-05-03T21:42:08.162Z,27.30
2023-05-03T21:44:58.872Z,24.40
2023-05-03T21:48:28.052Z,20.40
2023-05-03T21:52:24.706Z,19.50
2023-05-03T21:56:34.258Z,21.30
2023-05-03T21:59:46.099Z,24.60
2023-05-03T22:02:40.297Z,27.30
2023-05-03T22:06:02.620Z,20.20
2023-05-03T22:08:58.283Z,25.00
2023-05-03T22:12:57.882Z,26.70
2023-05-03T22:16:18.768Z,27.00
2023-05-03T22:19:45.656Z,27.00
2023-05-03T22:23:45.398Z,26.20
2023-05-03T22:26:52.811Z,23.30
2023-05-03T22:29:47.492Z,24.40
2023-05-03T22:33:47.419Z,25.80
2023-05-03T22:36:48.170Z,25.30
2023-05-03T22:40:27.240Z,22.40
2023-05-03T22:44:32.902Z,23.40
2023-05-03T22:47:45.875Z,20.10
2023-05-03T22:51:19.218Z,26.20
2023-05-03T22:54:54.743Z,25.10
2023-05-03T22:58:05.496Z,18.60
2023-05-03T23:01:51.023Z,20.20
2023-05-03T23:05:29.774Z,17.60
2023-05-03T23:09:04.630Z,15.40
2023-05-03T23:12:51.964Z,16.30
2023-05-03T23:16:55.263Z,22.10
2023-05-03T23:20:39.463Z,18.00
2023-05-03T23:23:33.234Z,19.30
2023-05-03T23:26:49.881Z,19.80
2023-05-03T23:30:00.684Z,17.40
2023-05-03T23:33:12.582Z,18.40
2023-05-03T23:36:24.619Z,19.90
2023-05-03T23:39:38.854Z,18.30
2023-05-03T23:42:56.807Z,24.00
2023-05-03T23:45:52.416Z,24.10
2023-05-03T23:48:57.147Z,17.40
2023-05-03T23:51:46.781Z,22.90
2023-05-03T23:55:05.466Z,19.00
2023-05-03T23:58:30.351Z,25.20
